sensor_id;sensor_type;location;lat;lon;timestamp;P1;durP1;ratioP1;P2;durP2;ratioP2
71083;SDS011;58741;52.672;13.548;2023-04-16T00:00:38;4.80;;;3.50;;
71083;SDS011;58741;52.672;13.548;2023-04-16T00:03:03;4.57;;;3.67;;
71083;SDS011;58741;52.672;13.548;2023-04-16T00:05:29;5.18;;;3.78;;
71083;SDS011;58741;52.672;13.548;2023-04-16T00:07:54;6.05;;;3.95;;
71083;SDS011;58741;52.672;13.548;2023-04-16T00:10:20;6.60;;;3.88;;
71083;SDS011;58741;52.672;13.548;2023-04-16T00:12:46;7.30;;;3.72;;
71083;SDS011;58741;52.672;13.548;2023-04-16T00:15:11;2.80;;;2.50;;
71083;SDS011;58741;52.672;13.548;2023-04-16T00:17:37;5.00;;;3.45;;
71083;SDS011;58741;52.672;13.548;2023-04-16T00:20:02;6.22;;;4.07;;
71083;SDS011;58741;52.672;13.548;2023-04-16T00:22:28;5.85;;;3.67;;
71083;SDS011;58741;52.672;13.548;2023-04-16T00:24:55;5.13;;;2.92;;
71083;SDS011;58741;52.672;13.548;2023-04-16T00:27:20;9.00;;;4.30;;
71083;SDS011;58741;52.672;13.548;2023-04-16T00:29:46;7.22;;;4.25;;
71083;SDS011;58741;52.672;13.548;2023-04-16T00:32:12;5.90;;;3.92;;
71083;SDS011;58741;52.672;13.548;2023-04-16T00:34:38;6.68;;;3.58;;
71083;SDS011;58741;52.672;13.548;2023-04-16T00:37:03;5.03;;;3.28;;
71083;SDS011;58741;52.672;13.548;2023-04-16T00:39:29;4.72;;;3.17;;
71083;SDS011;58741;52.672;13.548;2023-04-16T00:41:55;4.53;;;3.17;;
71083;SDS011;58741;52.672;13.548;2023-04-16T00:44:20;6.72;;;2.90;;
71083;SDS011;58741;52.672;13.548;2023-04-16T00:46:46;5.35;;;3.67;;
71083;SDS011;58741;52.672;13.548;2023-04-16T00:49:12;4.40;;;2.45;;
71083;SDS011;58741;52.672;13.548;2023-04-16T00:51:37;5.65;;;3.72;;
71083;SDS011;58741;52.672;13.548;2023-04-16T00:54:03;4.72;;;3.03;;
71083;SDS011;58741;52.672;13.548;2023-04-16T00:56:30;4.97;;;3.35;;
71083;SDS011;58741;52.672;13.548;2023-04-16T00:58:57;4.10;;;3.38;;
71083;SDS011;58741;52.672;13.548;2023-04-16T01:01:23;3.90;;;3.00;;
71083;SDS011;58741;52.672;13.548;2023-04-16T01:03:49;7.38;;;3.42;;
71083;SDS011;58741;52.672;13.548;2023-04-16T01:06:15;6.18;;;3.67;;
71083;SDS011;58741;52.672;13.548;2023-04-16T01:08:42;6.38;;;3.60;;
71083;SDS011;58741;52.672;13.548;2023-04-16T01:11:11;8.55;;;3.88;;
71083;SDS011;58741;52.672;13.548;2023-04-16T01:13:37;4.72;;;3.70;;
71083;SDS011;58741;52.672;13.548;2023-04-16T01:16:07;6.55;;;3.65;;
71083;SDS011;58741;52.672;13.548;2023-04-16T01:18:34;3.72;;;2.63;;
71083;SDS011;58741;52.672;13.548;2023-04-16T01:21:00;6.20;;;3.47;;
71083;SDS011;58741;52.672;13.548;2023-04-16T01:23:25;4.35;;;3.22;;
71083;SDS011;58741;52.672;13.548;2023-04-16T01:25:51;4.20;;;3.20;;
71083;SDS011;58741;52.672;13.548;2023-04-16T01:28:17;4.85;;;3.38;;
71083;SDS011;58741;52.672;13.548;2023-04-16T01:30:42;7.32;;;3.33;;
71083;SDS011;58741;52.672;13.548;2023-04-16T01:33:28;6.38;;;3.50;;
71083;SDS011;58741;52.672;13.548;2023-04-16T01:35:54;5.57;;;3.63;;
71083;SDS011;58741;52.672;13.548;2023-04-16T01:38:20;7.18;;;2.92;;
71083;SDS011;58741;52.672;13.548;2023-04-16T01:40:45;7.03;;;3.65;;
71083;SDS011;58741;52.672;13.548;2023-04-16T01:43:11;4.53;;;3.33;;
71083;SDS011;58741;52.672;13.548;2023-04-16T01:45:37;5.78;;;3.72;;
71083;SDS011;58741;52.672;13.548;2023-04-16T01:48:02;6.07;;;3.50;;
71083;SDS011;58741;52.672;13.548;2023-04-16T01:50:28;4.40;;;3.42;;
71083;SDS011;58741;52.672;13.548;2023-04-16T01:52:54;5.97;;;3.85;;
71083;SDS011;58741;52.672;13.548;2023-04-16T01:55:20;7.05;;;4.28;;
71083;SDS011;58741;52.672;13.548;2023-04-16T01:57:45;7.82;;;4.57;;
71083;SDS011;58741;52.672;13.548;2023-04-16T02:00:12;5.30;;;3.90;;
71083;SDS011;58741;52.672;13.548;2023-04-16T02:02:43;5.53;;;3.65;;
71083;SDS011;58741;52.672;13.548;2023-04-16T02:05:12;7.53;;;4.18;;
71083;SDS011;58741;52.672;13.548;2023-04-16T02:07:37;10.15;;;5.05;;
71083;SDS011;58741;52.672;13.548;2023-04-16T02:10:03;7.05;;;4.07;;
71083;SDS011;58741;52.672;13.548;2023-04-16T02:12:30;5.55;;;4.10;;
71083;SDS011;58741;52.672;13.548;2023-04-16T02:14:56;4.53;;;3.67;;
71083;SDS011;58741;52.672;13.548;2023-04-16T02:17:24;7.68;;;4.80;;
71083;SDS011;58741;52.672;13.548;2023-04-16T02:20:00;6.65;;;4.32;;
71083;SDS011;58741;52.672;13.548;2023-04-16T02:22:28;9.10;;;4.72;;
71083;SDS011;58741;52.672;13.548;2023-04-16T02:24:53;6.72;;;4.70;;
71083;SDS011;58741;52.672;13.548;2023-04-16T02:27:19;7.80;;;4.28;;
71083;SDS011;58741;52.672;13.548;2023-04-16T02:29:47;5.40;;;4.18;;
71083;SDS011;58741;52.672;13.548;2023-04-16T02:32:15;7.50;;;4.60;;
71083;SDS011;58741;52.672;13.548;2023-04-16T02:34:43;7.07;;;4.80;;
71083;SDS011;58741;52.672;13.548;2023-04-16T02:37:10;9.38;;;4.47;;
71083;SDS011;58741;52.672;13.548;2023-04-16T02:39:35;5.35;;;4.05;;
71083;SDS011;58741;52.672;13.548;2023-04-16T02:42:01;8.85;;;4.05;;
71083;SDS011;58741;52.672;13.548;2023-04-16T02:44:27;8.60;;;5.28;;
71083;SDS011;58741;52.672;13.548;2023-04-16T02:46:52;7.00;;;4.20;;
71083;SDS011;58741;52.672;13.548;2023-04-16T02:49:18;6.40;;;4.53;;
71083;SDS011;58741;52.672;13.548;2023-04-16T02:51:43;5.38;;;3.75;;
71083;SDS011;58741;52.672;13.548;2023-04-16T02:54:09;7.95;;;4.55;;
71083;SDS011;58741;52.672;13.548;2023-04-16T02:56:35;8.80;;;4.78;;
71083;SDS011;58741;52.672;13.548;2023-04-16T02:59:00;7.75;;;4.28;;
71083;SDS011;58741;52.672;13.548;2023-04-16T03:01:26;6.32;;;4.53;;
71083;SDS011;58741;52.672;13.548;2023-04-16T03:03:52;6.85;;;4.18;;
71083;SDS011;58741;52.672;13.548;2023-04-16T03:06:18;7.53;;;4.10;;
71083;SDS011;58741;52.672;13.548;2023-04-16T03:08:44;7.97;;;5.38;;
71083;SDS011;58741;52.672;13.548;2023-04-16T03:11:09;4.93;;;4.07;;
71083;SDS011;58741;52.672;13.548;2023-04-16T03:13:35;7.10;;;4.68;;
71083;SDS011;58741;52.672;13.548;2023-04-16T03:16:01;5.25;;;3.60;;
71083;SDS011;58741;52.672;13.548;2023-04-16T03:18:26;8.32;;;4.18;;
71083;SDS011;58741;52.672;13.548;2023-04-16T03:20:52;8.13;;;4.25;;
71083;SDS011;58741;52.672;13.548;2023-04-16T03:23:17;4.35;;;3.63;;
71083;SDS011;58741;52.672;13.548;2023-04-16T03:25:43;8.27;;;4.20;;
71083;SDS011;58741;52.672;13.548;2023-04-16T03:28:14;7.22;;;4.40;;
71083;SDS011;58741;52.672;13.548;2023-04-16T03:30:40;6.57;;;3.63;;
71083;SDS011;58741;52.672;13.548;2023-04-16T03:33:06;7.63;;;4.38;;
71083;SDS011;58741;52.672;13.548;2023-04-16T03:35:32;13.55;;;4.30;;
71083;SDS011;58741;52.672;13.548;2023-04-16T03:37:58;12.65;;;4.63;;
71083;SDS011;58741;52.672;13.548;2023-04-16T03:40:24;9.25;;;4.50;;
71083;SDS011;58741;52.672;13.548;2023-04-16T03:42:51;6.00;;;4.20;;
71083;SDS011;58741;52.672;13.548;2023-04-16T03:45:16;7.18;;;4.13;;
71083;SDS011;58741;52.672;13.548;2023-04-16T03:47:43;6.90;;;4.65;;
71083;SDS011;58741;52.672;13.548;2023-04-16T03:50:08;6.80;;;3.95;;
71083;SDS011;58741;52.672;13.548;2023-04-16T03:52:35;8.43;;;4.55;;
71083;SDS011;58741;52.672;13.548;2023-04-16T03:55:01;8.65;;;4.18;;
71083;SDS011;58741;52.672;13.548;2023-04-16T03:57:29;11.52;;;4.05;;
71083;SDS011;58741;52.672;13.548;2023-04-16T04:00:00;6.10;;;4.53;;
71083;SDS011;58741;52.672;13.548;2023-04-16T04:02:28;7.90;;;5.80;;
71083;SDS011;58741;52.672;13.548;2023-04-16T04:04:54;6.55;;;4.32;;
71083;SDS011;58741;52.672;13.548;2023-04-16T04:07:19;6.97;;;4.45;;
71083;SDS011;58741;52.672;13.548;2023-04-16T04:09:45;6.97;;;3.65;;
71083;SDS011;58741;52.672;13.548;2023-04-16T04:13:25;7.28;;;4.30;;
71083;SDS011;58741;52.672;13.548;2023-04-16T04:15:51;9.63;;;4.82;;
71083;SDS011;58741;52.672;13.548;2023-04-16T04:18:17;6.95;;;4.53;;
71083;SDS011;58741;52.672;13.548;2023-04-16T04:20:43;8.88;;;5.38;;
71083;SDS011;58741;52.672;13.548;2023-04-16T04:23:12;6.47;;;4.68;;
71083;SDS011;58741;52.672;13.548;2023-04-16T04:25:37;6.47;;;4.40;;
71083;SDS011;58741;52.672;13.548;2023-04-16T04:28:03;9.60;;;4.75;;
71083;SDS011;58741;52.672;13.548;2023-04-16T04:30:28;5.95;;;3.60;;
71083;SDS011;58741;52.672;13.548;2023-04-16T04:32:54;13.85;;;4.97;;
71083;SDS011;58741;52.672;13.548;2023-04-16T04:35:20;8.50;;;4.80;;
71083;SDS011;58741;52.672;13.548;2023-04-16T04:37:46;7.93;;;4.70;;
71083;SDS011;58741;52.672;13.548;2023-04-16T04:40:16;7.18;;;4.05;;
71083;SDS011;58741;52.672;13.548;2023-04-16T04:42:41;10.68;;;5.60;;
71083;SDS011;58741;52.672;13.548;2023-04-16T04:45:08;7.35;;;4.53;;
71083;SDS011;58741;52.672;13.548;2023-04-16T04:47:34;8.05;;;5.40;;
71083;SDS011;58741;52.672;13.548;2023-04-16T04:50:00;7.22;;;4.38;;
71083;SDS011;58741;52.672;13.548;2023-04-16T04:52:26;6.97;;;4.43;;
71083;SDS011;58741;52.672;13.548;2023-04-16T04:54:51;9.13;;;4.28;;
71083;SDS011;58741;52.672;13.548;2023-04-16T04:57:17;7.22;;;3.97;;
71083;SDS011;58741;52.672;13.548;2023-04-16T04:59:43;9.32;;;4.75;;
71083;SDS011;58741;52.672;13.548;2023-04-16T05:02:10;6.88;;;4.60;;
71083;SDS011;58741;52.672;13.548;2023-04-16T05:04:35;6.40;;;4.55;;
71083;SDS011;58741;52.672;13.548;2023-04-16T05:07:01;8.55;;;4.57;;
71083;SDS011;58741;52.672;13.548;2023-04-16T05:09:27;5.18;;;3.97;;
71083;SDS011;58741;52.672;13.548;2023-04-16T05:11:52;7.70;;;4.82;;
71083;SDS011;58741;52.672;13.548;2023-04-16T05:14:18;7.22;;;5.00;;
71083;SDS011;58741;52.672;13.548;2023-04-16T05:16:43;7.53;;;3.72;;
71083;SDS011;58741;52.672;13.548;2023-04-16T05:19:09;6.47;;;4.13;;
71083;SDS011;58741;52.672;13.548;2023-04-16T05:21:35;7.60;;;4.20;;
71083;SDS011;58741;52.672;13.548;2023-04-16T05:24:00;13.90;;;4.63;;
71083;SDS011;58741;52.672;13.548;2023-04-16T05:26:26;7.13;;;4.63;;
71083;SDS011;58741;52.672;13.548;2023-04-16T05:28:51;8.52;;;4.90;;
71083;SDS011;58741;52.672;13.548;2023-04-16T05:31:17;7.28;;;4.85;;
71083;SDS011;58741;52.672;13.548;2023-04-16T05:33:43;9.95;;;5.10;;
71083;SDS011;58741;52.672;13.548;2023-04-16T05:36:08;5.78;;;4.03;;
71083;SDS011;58741;52.672;13.548;2023-04-16T05:38:34;6.88;;;3.97;;
71083;SDS011;58741;52.672;13.548;2023-04-16T05:40:59;5.60;;;3.67;;
71083;SDS011;58741;52.672;13.548;2023-04-16T05:43:25;8.10;;;4.35;;
71083;SDS011;58741;52.672;13.548;2023-04-16T05:45:50;9.23;;;5.00;;
71083;SDS011;58741;52.672;13.548;2023-04-16T05:48:16;6.90;;;4.70;;
71083;SDS011;58741;52.672;13.548;2023-04-16T05:50:41;7.50;;;4.57;;
71083;SDS011;58741;52.672;13.548;2023-04-16T05:53:07;7.47;;;4.22;;
71083;SDS011;58741;52.672;13.548;2023-04-16T05:55:36;7.65;;;3.38;;
71083;SDS011;58741;52.672;13.548;2023-04-16T05:58:02;6.65;;;3.83;;
71083;SDS011;58741;52.672;13.548;2023-04-16T06:00:33;8.85;;;3.83;;
71083;SDS011;58741;52.672;13.548;2023-04-16T06:02:59;6.75;;;3.80;;
71083;SDS011;58741;52.672;13.548;2023-04-16T06:05:25;6.13;;;3.95;;
71083;SDS011;58741;52.672;13.548;2023-04-16T06:07:51;7.32;;;3.47;;
71083;SDS011;58741;52.672;13.548;2023-04-16T06:10:17;6.18;;;4.03;;
71083;SDS011;58741;52.672;13.548;2023-04-16T06:12:42;5.95;;;4.10;;
71083;SDS011;58741;52.672;13.548;2023-04-16T06:15:08;10.05;;;4.75;;
71083;SDS011;58741;52.672;13.548;2023-04-16T06:17:34;4.25;;;3.10;;
71083;SDS011;58741;52.672;13.548;2023-04-16T06:20:00;8.77;;;4.15;;
71083;SDS011;58741;52.672;13.548;2023-04-16T06:22:25;8.45;;;5.03;;
71083;SDS011;58741;52.672;13.548;2023-04-16T06:24:51;14.15;;;5.85;;
71083;SDS011;58741;52.672;13.548;2023-04-16T06:27:17;8.88;;;3.85;;
71083;SDS011;58741;52.672;13.548;2023-04-16T06:29:43;6.45;;;4.03;;
71083;SDS011;58741;52.672;13.548;2023-04-16T06:32:08;6.50;;;4.40;;
71083;SDS011;58741;52.672;13.548;2023-04-16T06:34:34;7.03;;;3.88;;
71083;SDS011;58741;52.672;13.548;2023-04-16T06:37:01;7.82;;;4.80;;
71083;SDS011;58741;52.672;13.548;2023-04-16T06:39:26;8.38;;;5.30;;
71083;SDS011;58741;52.672;13.548;2023-04-16T06:41:52;9.70;;;5.18;;
71083;SDS011;58741;52.672;13.548;2023-04-16T06:44:18;4.68;;;3.83;;
71083;SDS011;58741;52.672;13.548;2023-04-16T06:46:43;5.45;;;3.92;;
71083;SDS011;58741;52.672;13.548;2023-04-16T06:49:09;7.63;;;4.63;;
71083;SDS011;58741;52.672;13.548;2023-04-16T06:51:34;8.48;;;4.07;;
71083;SDS011;58741;52.672;13.548;2023-04-16T06:54:00;5.30;;;3.72;;
71083;SDS011;58741;52.672;13.548;2023-04-16T06:56:26;6.43;;;3.80;;
71083;SDS011;58741;52.672;13.548;2023-04-16T06:58:51;8.02;;;5.00;;
71083;SDS011;58741;52.672;13.548;2023-04-16T07:01:17;9.27;;;4.43;;
71083;SDS011;58741;52.672;13.548;2023-04-16T07:03:42;5.45;;;3.83;;
71083;SDS011;58741;52.672;13.548;2023-04-16T07:06:08;12.52;;;5.25;;
71083;SDS011;58741;52.672;13.548;2023-04-16T07:08:34;8.73;;;4.50;;
71083;SDS011;58741;52.672;13.548;2023-04-16T07:11:00;9.77;;;4.30;;
71083;SDS011;58741;52.672;13.548;2023-04-16T07:13:26;7.50;;;4.60;;
71083;SDS011;58741;52.672;13.548;2023-04-16T07:15:51;8.02;;;4.82;;
71083;SDS011;58741;52.672;13.548;2023-04-16T07:18:17;6.57;;;3.90;;
71083;SDS011;58741;52.672;13.548;2023-04-16T07:20:43;8.15;;;4.97;;
71083;SDS011;58741;52.672;13.548;2023-04-16T07:23:08;7.78;;;5.38;;
71083;SDS011;58741;52.672;13.548;2023-04-16T07:25:34;7.07;;;3.78;;
71083;SDS011;58741;52.672;13.548;2023-04-16T07:27:59;6.35;;;3.88;;
71083;SDS011;58741;52.672;13.548;2023-04-16T07:30:25;5.28;;;3.88;;
71083;SDS011;58741;52.672;13.548;2023-04-16T07:32:57;7.38;;;4.55;;
71083;SDS011;58741;52.672;13.548;2023-04-16T07:35:24;8.07;;;4.60;;
71083;SDS011;58741;52.672;13.548;2023-04-16T07:37:49;5.80;;;3.53;;
71083;SDS011;58741;52.672;13.548;2023-04-16T07:40:15;4.18;;;3.25;;
71083;SDS011;58741;52.672;13.548;2023-04-16T07:42:41;6.93;;;3.80;;
71083;SDS011;58741;52.672;13.548;2023-04-16T07:45:07;6.15;;;3.65;;
71083;SDS011;58741;52.672;13.548;2023-04-16T07:47:33;5.32;;;3.00;;
71083;SDS011;58741;52.672;13.548;2023-04-16T07:49:58;5.45;;;3.70;;
71083;SDS011;58741;52.672;13.548;2023-04-16T07:52:24;9.18;;;3.75;;
71083;SDS011;58741;52.672;13.548;2023-04-16T07:54:50;5.70;;;3.88;;
71083;SDS011;58741;52.672;13.548;2023-04-16T07:57:16;6.78;;;3.58;;
71083;SDS011;58741;52.672;13.548;2023-04-16T07:59:41;9.27;;;5.18;;
71083;SDS011;58741;52.672;13.548;2023-04-16T08:02:08;6.60;;;3.75;;
71083;SDS011;58741;52.672;13.548;2023-04-16T08:04:37;8.02;;;4.72;;
71083;SDS011;58741;52.672;13.548;2023-04-16T08:07:02;7.57;;;4.72;;
71083;SDS011;58741;52.672;13.548;2023-04-16T08:09:28;7.57;;;4.88;;
71083;SDS011;58741;52.672;13.548;2023-04-16T08:11:53;8.80;;;5.07;;
71083;SDS011;58741;52.672;13.548;2023-04-16T08:14:19;10.82;;;5.00;;
71083;SDS011;58741;52.672;13.548;2023-04-16T08:16:45;8.05;;;4.80;;
71083;SDS011;58741;52.672;13.548;2023-04-16T08:19:11;5.50;;;3.60;;
71083;SDS011;58741;52.672;13.548;2023-04-16T08:21:36;8.55;;;4.60;;
71083;SDS011;58741;52.672;13.548;2023-04-16T08:24:02;7.78;;;4.22;;
71083;SDS011;58741;52.672;13.548;2023-04-16T08:26:28;7.15;;;4.18;;
71083;SDS011;58741;52.672;13.548;2023-04-16T08:28:53;8.05;;;4.68;;
71083;SDS011;58741;52.672;13.548;2023-04-16T08:31:19;6.47;;;4.68;;
71083;SDS011;58741;52.672;13.548;2023-04-16T08:33:45;7.50;;;4.20;;
71083;SDS011;58741;52.672;13.548;2023-04-16T08:36:10;7.45;;;3.97;;
71083;SDS011;58741;52.672;13.548;2023-04-16T08:38:36;6.85;;;3.88;;
71083;SDS011;58741;52.672;13.548;2023-04-16T08:41:02;6.32;;;3.83;;
71083;SDS011;58741;52.672;13.548;2023-04-16T08:43:32;5.32;;;3.83;;
71083;SDS011;58741;52.672;13.548;2023-04-16T08:46:01;5.18;;;3.25;;
71083;SDS011;58741;52.672;13.548;2023-04-16T08:48:29;6.35;;;3.55;;
71083;SDS011;58741;52.672;13.548;2023-04-16T08:50:58;6.15;;;3.92;;
71083;SDS011;58741;52.672;13.548;2023-04-16T08:53:34;6.55;;;4.03;;
71083;SDS011;58741;52.672;13.548;2023-04-16T08:56:06;4.95;;;3.47;;
71083;SDS011;58741;52.672;13.548;2023-04-16T08:58:35;11.15;;;4.00;;
71083;SDS011;58741;52.672;13.548;2023-04-16T09:01:03;9.55;;;5.18;;
71083;SDS011;58741;52.672;13.548;2023-04-16T09:03:30;5.90;;;4.18;;
71083;SDS011;58741;52.672;13.548;2023-04-16T09:05:56;8.95;;;4.45;;
71083;SDS011;58741;52.672;13.548;2023-04-16T09:08:23;7.95;;;4.07;;
71083;SDS011;58741;52.672;13.548;2023-04-16T09:10:50;7.50;;;4.78;;
71083;SDS011;58741;52.672;13.548;2023-04-16T09:13:16;7.95;;;4.85;;
71083;SDS011;58741;52.672;13.548;2023-04-16T09:15:44;5.63;;;3.90;;
71083;SDS011;58741;52.672;13.548;2023-04-16T09:18:10;5.85;;;3.78;;
71083;SDS011;58741;52.672;13.548;2023-04-16T09:20:36;6.43;;;4.30;;
71083;SDS011;58741;52.672;13.548;2023-04-16T09:23:03;7.72;;;3.95;;
71083;SDS011;58741;52.672;13.548;2023-04-16T09:25:32;7.07;;;4.43;;
71083;SDS011;58741;52.672;13.548;2023-04-16T09:27:58;8.02;;;5.13;;
71083;SDS011;58741;52.672;13.548;2023-04-16T09:30:25;6.03;;;4.38;;
71083;SDS011;58741;52.672;13.548;2023-04-16T09:32:51;9.85;;;4.72;;
71083;SDS011;58741;52.672;13.548;2023-04-16T09:35:44;14.73;;;5.32;;
71083;SDS011;58741;52.672;13.548;2023-04-16T09:38:11;8.82;;;5.15;;
71083;SDS011;58741;52.672;13.548;2023-04-16T09:40:37;10.63;;;5.20;;
71083;SDS011;58741;52.672;13.548;2023-04-16T09:43:09;8.23;;;4.70;;
71083;SDS011;58741;52.672;13.548;2023-04-16T09:45:46;9.82;;;4.50;;
71083;SDS011;58741;52.672;13.548;2023-04-16T09:48:26;6.72;;;3.97;;
71083;SDS011;58741;52.672;13.548;2023-04-16T09:50:56;8.05;;;4.88;;
71083;SDS011;58741;52.672;13.548;2023-04-16T09:53:29;7.63;;;4.68;;
71083;SDS011;58741;52.672;13.548;2023-04-16T09:55:59;6.95;;;4.00;;
71083;SDS011;58741;52.672;13.548;2023-04-16T09:58:26;5.85;;;4.15;;
71083;SDS011;58741;52.672;13.548;2023-04-16T10:00:59;6.38;;;4.10;;
71083;SDS011;58741;52.672;13.548;2023-04-16T10:03:29;7.35;;;4.53;;
71083;SDS011;58741;52.672;13.548;2023-04-16T10:06:12;8.57;;;4.55;;
71083;SDS011;58741;52.672;13.548;2023-04-16T10:08:43;5.97;;;4.38;;
71083;SDS011;58741;52.672;13.548;2023-04-16T10:11:12;6.80;;;4.53;;
71083;SDS011;58741;52.672;13.548;2023-04-16T10:13:38;7.28;;;4.20;;
71083;SDS011;58741;52.672;13.548;2023-04-16T10:16:03;5.40;;;3.83;;
71083;SDS011;58741;52.672;13.548;2023-04-16T10:18:30;7.05;;;4.55;;
71083;SDS011;58741;52.672;13.548;2023-04-16T10:20:56;6.90;;;4.20;;
71083;SDS011;58741;52.672;13.548;2023-04-16T10:23:21;6.05;;;4.20;;
71083;SDS011;58741;52.672;13.548;2023-04-16T10:25:48;7.93;;;4.05;;
71083;SDS011;58741;52.672;13.548;2023-04-16T10:28:14;6.47;;;3.90;;
71083;SDS011;58741;52.672;13.548;2023-04-16T10:30:42;5.20;;;3.45;;
71083;SDS011;58741;52.672;13.548;2023-04-16T10:33:16;6.78;;;3.55;;
71083;SDS011;58741;52.672;13.548;2023-04-16T10:35:44;8.98;;;4.47;;
71083;SDS011;58741;52.672;13.548;2023-04-16T10:40:57;6.70;;;3.75;;
71083;SDS011;58741;52.672;13.548;2023-04-16T10:43:24;5.32;;;3.75;;
71083;SDS011;58741;52.672;13.548;2023-04-16T10:45:50;5.72;;;4.05;;
71083;SDS011;58741;52.672;13.548;2023-04-16T10:48:18;6.53;;;3.95;;
71083;SDS011;58741;52.672;13.548;2023-04-16T10:50:53;6.88;;;4.05;;
71083;SDS011;58741;52.672;13.548;2023-04-16T10:53:25;7.68;;;4.13;;
71083;SDS011;58741;52.672;13.548;2023-04-16T10:58:29;6.32;;;3.95;;
71083;SDS011;58741;52.672;13.548;2023-04-16T11:00:58;7.38;;;2.85;;
71083;SDS011;58741;52.672;13.548;2023-04-16T11:03:28;6.95;;;4.13;;
71083;SDS011;58741;52.672;13.548;2023-04-16T11:06:08;7.35;;;4.28;;
71083;SDS011;58741;52.672;13.548;2023-04-16T11:08:37;4.80;;;3.65;;
71083;SDS011;58741;52.672;13.548;2023-04-16T11:11:05;5.90;;;3.78;;
71083;SDS011;58741;52.672;13.548;2023-04-16T11:13:30;5.93;;;2.83;;
71083;SDS011;58741;52.672;13.548;2023-04-16T11:15:56;4.78;;;3.47;;
71083;SDS011;58741;52.672;13.548;2023-04-16T11:18:23;4.60;;;3.22;;
71083;SDS011;58741;52.672;13.548;2023-04-16T11:20:49;8.85;;;4.68;;
71083;SDS011;58741;52.672;13.548;2023-04-16T11:23:15;6.60;;;3.80;;
71083;SDS011;58741;52.672;13.548;2023-04-16T11:25:41;7.00;;;3.42;;
71083;SDS011;58741;52.672;13.548;2023-04-16T11:28:06;6.30;;;3.17;;
71083;SDS011;58741;52.672;13.548;2023-04-16T11:30:41;6.63;;;4.03;;
71083;SDS011;58741;52.672;13.548;2023-04-16T11:33:07;5.03;;;3.88;;
71083;SDS011;58741;52.672;13.548;2023-04-16T11:35:35;7.25;;;3.35;;
71083;SDS011;58741;52.672;13.548;2023-04-16T11:38:03;4.97;;;3.55;;
71083;SDS011;58741;52.672;13.548;2023-04-16T11:40:30;5.80;;;3.42;;
71083;SDS011;58741;52.672;13.548;2023-04-16T11:42:59;4.68;;;3.60;;
71083;SDS011;58741;52.672;13.548;2023-04-16T11:45:55;4.28;;;3.20;;
71083;SDS011;58741;52.672;13.548;2023-04-16T11:48:25;5.05;;;3.20;;
71083;SDS011;58741;52.672;13.548;2023-04-16T11:51:09;3.65;;;2.28;;
71083;SDS011;58741;52.672;13.548;2023-04-16T11:53:35;3.67;;;2.83;;
71083;SDS011;58741;52.672;13.548;2023-04-16T11:56:00;5.03;;;2.58;;
71083;SDS011;58741;52.672;13.548;2023-04-16T11:58:27;4.28;;;2.63;;
71083;SDS011;58741;52.672;13.548;2023-04-16T12:00:53;3.10;;;2.15;;
71083;SDS011;58741;52.672;13.548;2023-04-16T12:03:36;4.68;;;3.22;;
71083;SDS011;58741;52.672;13.548;2023-04-16T12:06:08;5.07;;;2.60;;
71083;SDS011;58741;52.672;13.548;2023-04-16T12:08:33;4.15;;;2.70;;
71083;SDS011;58741;52.672;13.548;2023-04-16T12:10:59;3.88;;;2.85;;
71083;SDS011;58741;52.672;13.548;2023-04-16T12:13:25;4.68;;;3.00;;
71083;SDS011;58741;52.672;13.548;2023-04-16T12:15:51;2.92;;;1.77;;
71083;SDS011;58741;52.672;13.548;2023-04-16T12:18:19;5.75;;;2.55;;
71083;SDS011;58741;52.672;13.548;2023-04-16T12:20:46;4.15;;;2.25;;
71083;SDS011;58741;52.672;13.548;2023-04-16T12:23:25;4.30;;;2.40;;
71083;SDS011;58741;52.672;13.548;2023-04-16T12:25:52;2.95;;;2.60;;
71083;SDS011;58741;52.672;13.548;2023-04-16T12:28:34;3.13;;;2.47;;
71083;SDS011;58741;52.672;13.548;2023-04-16T12:31:02;5.68;;;2.70;;
71083;SDS011;58741;52.672;13.548;2023-04-16T12:33:28;4.75;;;2.90;;
71083;SDS011;58741;52.672;13.548;2023-04-16T12:35:54;2.30;;;1.80;;
71083;SDS011;58741;52.672;13.548;2023-04-16T12:38:20;3.28;;;2.17;;
71083;SDS011;58741;52.672;13.548;2023-04-16T12:40:46;4.13;;;2.25;;
71083;SDS011;58741;52.672;13.548;2023-04-16T12:43:12;3.92;;;2.60;;
71083;SDS011;58741;52.672;13.548;2023-04-16T12:45:38;2.60;;;2.08;;
71083;SDS011;58741;52.672;13.548;2023-04-16T12:48:04;3.60;;;2.25;;
71083;SDS011;58741;52.672;13.548;2023-04-16T12:50:30;3.15;;;2.30;;
71083;SDS011;58741;52.672;13.548;2023-04-16T12:52:55;2.60;;;2.00;;
71083;SDS011;58741;52.672;13.548;2023-04-16T12:55:22;2.95;;;1.98;;
71083;SDS011;58741;52.672;13.548;2023-04-16T12:57:48;4.80;;;2.97;;
71083;SDS011;58741;52.672;13.548;2023-04-16T13:00:16;4.53;;;2.13;;
71083;SDS011;58741;52.672;13.548;2023-04-16T13:02:42;4.00;;;2.22;;
71083;SDS011;58741;52.672;13.548;2023-04-16T13:05:08;2.90;;;1.70;;
71083;SDS011;58741;52.672;13.548;2023-04-16T13:07:34;4.65;;;2.28;;
71083;SDS011;58741;52.672;13.548;2023-04-16T13:09:59;4.45;;;2.22;;
71083;SDS011;58741;52.672;13.548;2023-04-16T13:12:25;2.40;;;1.98;;
71083;SDS011;58741;52.672;13.548;2023-04-16T13:14:52;4.40;;;2.70;;
71083;SDS011;58741;52.672;13.548;2023-04-16T13:17:17;3.58;;;2.47;;
71083;SDS011;58741;52.672;13.548;2023-04-16T13:19:43;2.20;;;1.92;;
71083;SDS011;58741;52.672;13.548;2023-04-16T13:22:09;3.80;;;2.50;;
71083;SDS011;58741;52.672;13.548;2023-04-16T13:24:35;3.70;;;2.50;;
71083;SDS011;58741;52.672;13.548;2023-04-16T13:27:01;1.80;;;1.60;;
71083;SDS011;58741;52.672;13.548;2023-04-16T13:29:27;3.15;;;2.17;;
71083;SDS011;58741;52.672;13.548;2023-04-16T13:31:53;2.72;;;2.00;;
71083;SDS011;58741;52.672;13.548;2023-04-16T13:34:19;2.13;;;1.70;;
71083;SDS011;58741;52.672;13.548;2023-04-16T13:36:45;3.53;;;2.38;;
71083;SDS011;58741;52.672;13.548;2023-04-16T13:39:11;3.38;;;2.00;;
71083;SDS011;58741;52.672;13.548;2023-04-16T13:41:37;3.72;;;2.75;;
71083;SDS011;58741;52.672;13.548;2023-04-16T13:44:02;2.97;;;2.20;;
71083;SDS011;58741;52.672;13.548;2023-04-16T13:46:28;3.63;;;2.40;;
71083;SDS011;58741;52.672;13.548;2023-04-16T13:48:54;4.55;;;2.42;;
71083;SDS011;58741;52.672;13.548;2023-04-16T13:51:20;6.80;;;2.90;;
71083;SDS011;58741;52.672;13.548;2023-04-16T13:53:46;3.13;;;2.67;;
71083;SDS011;58741;52.672;13.548;2023-04-16T13:56:12;7.03;;;2.60;;
71083;SDS011;58741;52.672;13.548;2023-04-16T13:58:37;4.65;;;2.42;;
71083;SDS011;58741;52.672;13.548;2023-04-16T14:01:03;3.90;;;2.78;;
71083;SDS011;58741;52.672;13.548;2023-04-16T14:03:29;4.75;;;2.63;;
71083;SDS011;58741;52.672;13.548;2023-04-16T14:05:59;3.40;;;2.95;;
71083;SDS011;58741;52.672;13.548;2023-04-16T14:08:25;4.78;;;2.70;;
71083;SDS011;58741;52.672;13.548;2023-04-16T14:10:51;3.22;;;2.22;;
71083;SDS011;58741;52.672;13.548;2023-04-16T14:13:17;4.68;;;2.58;;
71083;SDS011;58741;52.672;13.548;2023-04-16T14:15:42;5.80;;;2.95;;
71083;SDS011;58741;52.672;13.548;2023-04-16T14:18:08;4.20;;;2.75;;
71083;SDS011;58741;52.672;13.548;2023-04-16T14:20:34;3.13;;;2.55;;
71083;SDS011;58741;52.672;13.548;2023-04-16T14:22:59;5.38;;;3.30;;
71083;SDS011;58741;52.672;13.548;2023-04-16T14:25:25;4.78;;;2.83;;
71083;SDS011;58741;52.672;13.548;2023-04-16T14:27:51;3.67;;;2.95;;
71083;SDS011;58741;52.672;13.548;2023-04-16T14:30:17;3.53;;;2.67;;
71083;SDS011;58741;52.672;13.548;2023-04-16T14:32:42;4.90;;;2.60;;
71083;SDS011;58741;52.672;13.548;2023-04-16T14:35:08;3.95;;;2.40;;
71083;SDS011;58741;52.672;13.548;2023-04-16T14:37:34;2.58;;;1.88;;